Time;durP1;ratioP1;P1;durP2;ratioP2;P2;SDS_P1;SDS_P2;PMS_P1;PMS_P2;Temp;Humidity;BMP_temperature;BMP_pressure;BME280_temperature;BME280_humidity;BME280_pressure;Samples;Min_cycle;Max_cycle;Signal;HPM_P1;HPM_P2
2022/01/26 00:07:37;;;;;;;34.60;22.20;;;;;;;3.03;77.84;96883.38;5000138;28;20198;-83
2022/01/26 00:10:04;;;;;;;35.67;22.67;;;;;;;3.04;78.13;96878.22;5011966;28;20895;-83
2022/01/26 00:12:30;;;;;;;36.33;22.93;;;;;;;3.06;78.26;96878.94;5003800;28;20203;-83
2022/01/26 00:14:57;;;;;;;32.40;21.47;;;;;;;3.10;77.59;96877.78;5013701;28;20599;-83
2022/01/26 00:17:23;;;;;;;32.17;20.97;;;;;;;3.07;76.96;96878.00;5012349;28;20223;-81
2022/01/26 00:19:54;;;;;;;34.90;22.47;;;;;;;2.91;77.20;96872.25;5013239;28;20207;-82
2022/01/26 00:22:41;;;;;;;31.83;21.63;;;;;;;2.87;77.73;96881.00;5011707;28;20237;-83
2022/01/26 00:25:24;;;;;;;32.83;20.13;;;;;;;2.95;77.52;96877.97;5010184;28;20221;-83
2022/01/26 00:27:54;;;;;;;31.73;21.27;;;;;;;2.99;77.38;96879.41;5012162;28;20632;-82
2022/01/26 00:38:39;;;;;;;30.90;19.83;;;;;;;3.07;76.43;96875.47;5012105;28;20198;-83
2022/01/26 00:41:10;;;;;;;33.00;21.63;;;;;;;2.99;76.73;96870.03;5012874;28;20214;-83
2022/01/26 00:43:39;;;;;;;33.80;21.87;;;;;;;3.04;76.92;96865.47;5010319;28;20246;-84
2022/01/26 00:46:07;;;;;;;31.23;21.03;;;;;;;3.08;76.37;96866.06;5012048;28;20641;-82
2022/01/26 00:48:37;;;;;;;32.40;21.47;;;;;;;3.14;76.46;96855.50;5011654;28;20229;-83
2022/01/26 00:51:05;;;;;;;33.50;21.83;;;;;;;3.10;76.45;96862.53;5011101;28;20289;-80
2022/01/26 00:53:34;;;;;;;34.43;21.80;;;;;;;3.08;76.26;96863.53;5010940;28;20242;-83
2022/01/26 00:56:01;;;;;;;29.13;19.73;;;;;;;2.99;76.61;96870.03;5012542;28;20742;-81
2022/01/26 00:58:29;;;;;;;31.70;21.13;;;;;;;2.97;76.80;96868.50;5008057;28;20219;-81
2022/01/26 01:00:58;;;;;;;33.00;21.00;;;;;;;2.92;77.10;96876.44;5012088;28;20310;-82
2022/01/26 01:03:24;;;;;;;30.40;21.50;;;;;;;2.94;77.12;96884.78;5010648;28;20223;-83
2022/01/26 01:05:56;;;;;;;39.07;22.40;;;;;;;2.78;77.25;96871.41;5012501;28;20206;-80
2022/01/26 01:08:24;;;;;;;31.73;20.37;;;;;;;2.81;77.15;96873.75;5011594;28;20202;-81
2022/01/26 01:10:51;;;;;;;32.13;21.60;;;;;;;2.76;77.29;96871.50;5012472;28;20202;-81
2022/01/26 01:13:21;;;;;;;34.07;21.63;;;;;;;2.68;77.94;96878.00;5012482;28;20218;-83
2022/01/26 01:15:51;;;;;;;32.87;21.50;;;;;;;2.72;78.06;96872.59;5012297;28;20199;-83
2022/01/26 01:18:22;;;;;;;35.30;22.13;;;;;;;2.75;77.84;96866.50;5010006;28;20226;-83
2022/01/26 01:21:24;;;;;;;31.93;21.30;;;;;;;2.75;77.27;96858.88;5012788;28;20575;-80
2022/01/26 01:26:49;;;;;;;31.97;20.77;;;;;;;2.78;77.11;96858.69;5008461;28;20208;-83
2022/01/26 01:29:21;;;;;;;34.87;21.87;;;;;;;2.76;77.56;96847.81;5011602;28;20246;-82
2022/01/26 01:31:53;;;;;;;29.67;20.30;;;;;;;2.77;77.41;96844.34;5012436;28;20721;-83
2022/01/26 01:34:21;;;;;;;30.57;20.17;;;;;;;2.81;76.82;96847.50;5012869;28;20218;-83
2022/01/26 01:36:50;;;;;;;31.90;21.40;;;;;;;2.78;77.11;96863.78;5013029;28;20191;-83
2022/01/26 01:39:17;;;;;;;31.03;20.27;;;;;;;2.73;77.64;96855.63;5012037;28;20230;-83
2022/01/26 01:41:47;;;;;;;29.90;20.87;;;;;;;2.81;76.95;96860.22;5012727;28;20202;-83
2022/01/26 01:44:14;;;;;;;30.40;20.47;;;;;;;2.85;76.59;96861.66;5013055;28;20225;-83
2022/01/26 01:46:41;;;;;;;27.30;18.83;;;;;;;2.82;76.37;96860.13;5011013;28;20285;-83
2022/01/26 01:49:10;;;;;;;28.83;19.50;;;;;;;2.84;76.42;96858.31;5005184;28;20227;-83
2022/01/26 01:51:41;;;;;;;28.20;19.63;;;;;;;2.80;76.30;96856.88;5004608;28;20191;-83
2022/01/26 01:54:12;;;;;;;28.60;18.80;;;;;;;2.76;75.77;96852.88;5012772;28;20218;-83
2022/01/26 01:56:40;;;;;;;27.77;18.53;;;;;;;2.61;76.44;96848.78;5012543;28;20222;-83
2022/01/26 01:59:07;;;;;;;25.27;17.23;;;;;;;2.61;76.45;96843.69;5012082;28;20202;-83
2022/01/26 02:01:33;;;;;;;26.63;17.37;;;;;;;2.58;76.27;96839.59;5014554;28;20213;-83
2022/01/26 02:03:59;;;;;;;28.63;18.37;;;;;;;2.51;76.81;96838.34;5014733;28;20227;-83
2022/01/26 02:06:27;;;;;;;34.57;18.33;;;;;;;2.38;76.94;96840.03;5015889;28;20681;-83
2022/01/26 02:08:54;;;;;;;24.53;17.60;;;;;;;2.43;77.39;96840.56;5015747;28;20576;-83
2022/01/26 02:11:20;;;;;;;25.40;18.13;;;;;;;2.28;78.27;96844.88;5016350;28;20202;-83
2022/01/26 02:13:55;;;;;;;64.80;19.00;;;;;;;2.23;77.99;96844.34;5013425;28;20223;-83
2022/01/26 02:16:27;;;;;;;29.03;18.33;;;;;;;2.30;78.00;96840.53;5015676;28;20198;-83
2022/01/26 02:19:24;;;;;;;27.53;17.03;;;;;;;2.33;77.57;96835.22;5014736;28;20277;-84
2022/01/26 02:49:15;;;;;;;21.97;16.03;;;;;;;2.37;77.37;96829.06;5016075;28;20262;-82
2022/01/26 02:49:53;;;;;;;38.70;17.03;;;;;;;2.10;78.52;96835.84;5014647;28;20206;-83
2022/01/26 02:52:38;;;;;;;25.67;16.53;;;;;;;1.99;78.57;96833.13;5014730;28;20234;-83
2022/01/26 02:55:20;;;;;;;25.27;16.90;;;;;;;2.08;79.10;96835.94;5014415;28;20242;-83
2022/01/26 03:00:39;;;;;;;26.77;17.07;;;;;;;1.84;79.63;96829.81;5013246;28;20215;-83
2022/01/26 03:03:14;;;;;;;24.30;16.80;;;;;;;1.92;79.63;96825.09;5013727;28;20202;-83
2022/01/26 03:05:47;;;;;;;25.43;17.63;;;;;;;2.01;79.19;96816.06;5012784;28;20264;-83
2022/01/26 03:08:14;;;;;;;34.70;17.97;;;;;;;2.13;79.16;96815.31;5013721;28;20206;-83
2022/01/26 03:10:48;;;;;;;26.30;17.80;;;;;;;2.06;79.63;96809.81;5014716;28;20717;-83
2022/01/26 03:13:19;;;;;;;33.33;17.73;;;;;;;2.04;79.77;96800.66;5013218;28;20226;-83
2022/01/26 03:15:49;;;;;;;29.20;16.83;;;;;;;2.05;79.49;96809.91;5013830;28;20230;-83
2022/01/26 03:21:03;;;;;;;38.83;17.70;;;;;;;2.16;79.28;96804.97;5013695;28;20205;-83
2022/01/26 03:29:15;;;;;;;27.10;17.77;;;;;;;2.14;80.16;96808.50;5006678;28;20297;-83
2022/01/26 03:32:32;;;;;;;29.17;18.13;;;;;;;2.25;79.95;96813.75;5013732;28;20583;-83
2022/01/26 03:34:52;;;;;;;28.13;18.30;;;;;;;2.32;79.22;96809.91;5011951;28;20257;-83
2022/01/26 03:37:22;;;;;;;32.13;18.50;;;;;;;2.21;79.34;96817.41;5012647;28;20257;-83
2022/01/26 03:39:50;;;;;;;49.23;18.83;;;;;;;2.08;79.74;96817.34;5002827;28;20199;-83
2022/01/26 03:42:18;;;;;;;31.67;19.57;;;;;;;2.07;80.02;96816.53;4993878;28;20211;-83
2022/01/26 03:44:45;;;;;;;53.13;20.60;;;;;;;1.99;80.29;96818.72;5002034;28;20217;-83
2022/01/26 03:47:12;;;;;;;31.47;19.33;;;;;;;2.02;80.63;96826.16;4974992;28;20201;-83
2022/01/26 03:49:38;;;;;;;34.87;19.17;;;;;;;2.05;80.58;96820.06;4996679;28;20297;-82
2022/01/26 03:52:06;;;;;;;30.63;19.80;;;;;;;2.14;80.64;96823.75;5013906;28;20686;-83
2022/01/26 03:54:32;;;;;;;29.73;19.73;;;;;;;2.14;80.70;96826.28;5012219;28;20226;-83
2022/01/26 03:56:59;;;;;;;28.47;19.40;;;;;;;2.24;80.57;96828.19;5010924;28;20203;-83
2022/01/26 03:59:26;;;;;;;28.20;19.30;;;;;;;2.33;79.86;96819.16;5001369;28;20796;-83
2022/01/26 04:01:53;;;;;;;28.00;19.00;;;;;;;2.36;79.15;96829.16;4993882;28;20682;-83
2022/01/26 04:04:19;;;;;;;29.17;19.40;;;;;;;2.32;79.23;96820.91;4993880;28;20227;-83
2022/01/26 04:06:46;;;;;;;31.97;19.03;;;;;;;2.27;79.24;96819.56;5008562;28;20203;-83
2022/01/26 04:09:15;;;;;;;29.63;19.23;;;;;;;2.27;79.02;96822.94;4998177;28;20235;-83
2022/01/26 04:11:44;;;;;;;30.10;18.63;;;;;;;2.22;79.47;96830.00;4992865;28;20206;-82
2022/01/26 04:14:14;;;;;;;27.40;18.13;;;;;;;2.30;78.87;96822.75;5006115;28;20227;-83
2022/01/26 04:16:43;;;;;;;26.13;18.40;;;;;;;2.35;78.81;96824.97;4998112;28;20707;-83
2022/01/26 04:19:10;;;;;;;27.80;17.63;;;;;;;2.41;78.14;96822.06;5005995;28;20238;-83
2022/01/26 04:24:24;;;;;;;25.10;17.27;;;;;;;2.34;78.05;96826.69;5006239;28;20356;-84
2022/01/26 04:26:56;;;;;;;27.07;19.13;;;;;;;2.32;78.21;96830.25;4994550;28;20445;-83
2022/01/26 04:29:26;;;;;;;26.43;17.70;;;;;;;2.30;78.34;96830.38;4992101;28;20652;-83
2022/01/26 04:31:54;;;;;;;35.67;18.00;;;;;;;2.26;78.12;96833.19;5009713;28;20206;-83
2022/01/26 04:34:22;;;;;;;28.10;18.40;;;;;;;2.31;77.99;96828.63;5012985;28;20230;-84
2022/01/26 04:36:53;;;;;;;36.20;18.37;;;;;;;2.11;78.47;96822.25;5001050;28;20202;-84
2022/01/26 04:39:24;;;;;;;28.90;19.47;;;;;;;2.16;78.76;96821.94;4999090;28;20226;-84
2022/01/26 04:41:54;;;;;;;36.53;18.70;;;;;;;2.14;78.91;96824.56;5014138;28;20225;-84
2022/01/26 04:44:23;;;;;;;27.73;18.03;;;;;;;2.14;78.71;96822.03;5007343;28;20246;-84
2022/01/26 04:46:51;;;;;;;28.47;19.00;;;;;;;2.13;78.31;96820.41;5004257;28;20254;-84
2022/01/26 04:49:19;;;;;;;28.27;17.60;;;;;;;2.07;77.73;96828.41;4997845;28;20222;-84
2022/01/26 04:51:46;;;;;;;24.30;17.10;;;;;;;2.13;77.37;96824.66;5002078;28;20665;-83
2022/01/26 04:54:13;;;;;;;24.80;17.03;;;;;;;2.16;76.93;96819.41;5004039;28;20224;-84
2022/01/26 04:56:39;;;;;;;22.13;16.43;;;;;;;2.13;77.70;96828.03;4998502;28;20195;-83
2022/01/26 04:59:06;;;;;;;27.53;18.07;;;;;;;2.08;77.98;96825.78;4986577;28;20235;-83
2022/01/26 05:01:32;;;;;;;25.20;17.70;;;;;;;2.15;77.83;96828.75;4985441;28;20230;-84
2022/01/26 05:03:59;;;;;;;31.33;18.83;;;;;;;2.20;77.75;96838.63;4975694;28;20637;-83
2022/01/26 05:06:27;;;;;;;27.40;18.70;;;;;;;2.16;77.76;96839.72;4984740;28;20200;-84
2022/01/26 05:08:53;;;;;;;33.43;18.00;;;;;;;2.16;77.89;96834.63;4983459;28;20567;-83
2022/01/26 05:11:28;;;;;;;30.53;18.57;;;;;;;2.16;77.60;96834.63;4994471;28;20710;-84
2022/01/26 05:13:56;;;;;;;81.50;19.90;;;;;;;2.02;77.99;96840.56;5004808;28;20761;-83
2022/01/26 05:16:22;;;;;;;27.63;18.07;;;;;;;2.02;78.30;96831.22;4992568;28;20204;-84
2022/01/26 05:18:49;;;;;;;28.70;18.27;;;;;;;2.05;78.24;96835.31;4983510;28;20219;-83
2022/01/26 05:21:15;;;;;;;26.20;17.07;;;;;;;2.09;78.37;96829.13;4975153;28;20232;-83
2022/01/26 05:23:43;;;;;;;25.30;18.30;;;;;;;2.16;77.85;96830.38;4989789;28;20227;-83
2022/01/26 05:26:10;;;;;;;22.87;16.30;;;;;;;2.18;77.14;96830.28;4995702;28;20196;-83
2022/01/26 05:28:39;;;;;;;22.73;16.47;;;;;;;2.01;77.08;96827.06;4992592;28;20206;-83
2022/01/26 05:31:06;;;;;;;25.40;17.70;;;;;;;2.00;77.93;96837.31;5000058;28;20230;-83
2022/01/26 05:33:32;;;;;;;31.13;17.87;;;;;;;1.97;77.90;96833.22;5002712;28;20219;-83
2022/01/26 05:35:59;;;;;;;24.33;17.63;;;;;;;1.97;77.42;96829.88;5007955;28;20207;-83
2022/01/26 05:38:25;;;;;;;26.47;16.93;;;;;;;1.91;77.44;96831.06;4996437;28;20215;-83
2022/01/26 05:40:55;;;;;;;21.57;16.17;;;;;;;1.88;77.59;96823.63;4992954;28;20227;-83
2022/01/26 05:43:21;;;;;;;26.47;17.67;;;;;;;1.80;77.94;96833.44;4993195;28;20234;-84
2022/01/26 05:45:52;;;;;;;26.00;17.27;;;;;;;1.82;78.01;96826.53;4982167;28;20229;-83
2022/01/26 05:48:18;;;;;;;21.73;15.17;;;;;;;1.82;77.78;96825.72;4994728;28;20195;-85
2022/01/26 05:50:51;;;;;;;23.37;16.10;;;;;;;1.65;78.60;96825.00;5001100;28;20229;-84
2022/01/26 05:53:21;;;;;;;18.13;13.57;;;;;;;1.61;78.09;96831.16;4999410;28;21636;-84
2022/01/26 05:55:48;;;;;;;20.07;14.50;;;;;;;1.62;77.67;96844.69;5003588;28;20195;-84
2022/01/26 05:58:16;;;;;;;19.27;13.80;;;;;;;1.52;77.83;96841.06;4994690;28;20231;-84
2022/01/26 06:00:43;;;;;;;18.40;12.70;;;;;;;1.59;77.56;96845.66;4993408;28;20210;-84
2022/01/26 06:03:10;;;;;;;15.43;12.50;;;;;;;1.65;76.97;96837.69;4994521;28;20218;-83
2022/01/26 06:05:36;;;;;;;17.47;12.73;;;;;;;1.67;76.50;96835.06;5013196;28;20195;-84
2022/01/26 06:08:03;;;;;;;17.87;13.67;;;;;;;1.74;76.00;96836.31;5014484;28;20229;-83
2022/01/26 06:10:30;;;;;;;18.77;13.37;;;;;;;1.80;76.22;96832.63;5014896;28;20862;-84
2022/01/26 06:12:56;;;;;;;17.97;13.33;;;;;;;1.66;76.47;96833.44;5014426;28;20210;-83
2022/01/26 06:15:24;;;;;;;17.97;14.00;;;;;;;1.58;76.72;96833.06;5009382;28;20230;-83
2022/01/26 06:17:53;;;;;;;17.40;13.20;;;;;;;1.61;76.55;96827.81;5013561;28;20215;-84
2022/01/26 06:20:20;;;;;;;17.43;13.03;;;;;;;1.63;76.47;96824.28;5014840;28;20286;-83
2022/01/26 06:22:46;;;;;;;15.47;12.57;;;;;;;1.67;76.44;96825.75;5014708;28;20206;-84
2022/01/26 06:25:13;;;;;;;16.10;12.80;;;;;;;1.70;75.65;96817.13;5011016;28;20227;-84
2022/01/26 06:27:40;;;;;;;14.40;11.73;;;;;;;1.71;74.35;96823.84;5015182;28;20574;-84
2022/01/26 06:30:08;;;;;;;15.90;11.40;;;;;;;1.73;75.63;96824.56;5000065;28;20572;-84
2022/01/26 06:32:38;;;;;;;16.87;11.70;;;;;;;1.70;74.77;96835.72;5012487;28;20221;-84
2022/01/26 06:35:05;;;;;;;17.47;11.83;;;;;;;1.71;75.27;96839.06;5015372;28;20740;-84
2022/01/26 06:37:32;;;;;;;14.63;11.33;;;;;;;1.62;75.75;96834.53;5013433;28;20191;-84
2022/01/26 06:39:58;;;;;;;15.17;11.90;;;;;;;1.57;74.76;96833.97;5013356;28;20230;-84
2022/01/26 06:42:30;;;;;;;15.27;11.30;;;;;;;1.63;76.59;96828.53;5014927;28;20203;-84
2022/01/26 06:45:08;;;;;;;70.13;48.73;;;;;;;1.70;74.82;96827.28;5011759;28;20277;-84
2022/01/26 06:47:51;;;;;;;34.90;24.87;;;;;;;1.74;73.97;96829.53;5010504;28;20198;-84
2022/01/26 06:50:19;;;;;;;19.77;14.23;;;;;;;1.80;72.81;96830.06;5014253;28;20199;-84
2022/01/26 06:52:46;;;;;;;15.23;11.70;;;;;;;1.83;72.84;96834.97;5016307;28;20257;-84
2022/01/26 06:55:13;;;;;;;13.60;11.07;;;;;;;1.77;72.79;96831.06;5014323;28;20254;-84
2022/01/26 06:57:39;;;;;;;13.40;10.90;;;;;;;1.68;73.33;96837.53;5014632;28;20211;-84
2022/01/26 07:00:08;;;;;;;13.63;11.00;;;;;;;1.61;73.10;96845.59;5013973;28;20219;-84
2022/01/26 07:02:36;;;;;;;14.33;10.73;;;;;;;1.65;72.17;96849.56;5014252;28;20199;-83
2022/01/26 07:05:05;;;;;;;17.40;10.67;;;;;;;1.64;71.99;96846.22;5009015;28;20227;-83
2022/01/26 07:07:32;;;;;;;14.60;11.07;;;;;;;1.68;72.49;96850.22;5014418;28;20191;-84
2022/01/26 07:09:59;;;;;;;13.53;10.47;;;;;;;1.67;71.61;96852.84;5013966;28;20249;-84
2022/01/26 07:12:25;;;;;;;14.50;10.80;;;;;;;1.72;71.49;96855.94;5025454;22;20784;-80
2022/01/26 07:21:21;;;;;;;13.13;10.20;;;;;;;1.92;70.86;96863.19;4930636;29;20838;-80
2022/01/26 07:23:36;;;;;;;13.50;10.37;;;;;;;2.26;69.61;96858.59;4928090;29;20233;-80
2022/01/26 07:26:02;;;;;;;11.83;9.80;;;;;;;2.57;68.71;96853.22;4940273;28;20232;-79
2022/01/26 07:28:34;;;;;;;19.17;12.13;;;;;;;2.87;67.32;96850.50;4952345;28;20201;-78
2022/01/26 07:31:01;;;;;;;16.80;12.97;;;;;;;3.07;66.41;96836.50;4954316;28;20209;-79
2022/01/26 07:33:28;;;;;;;14.07;10.70;;;;;;;3.28;65.73;96845.25;4954313;28;20254;-80
2022/01/26 07:35:55;;;;;;;12.27;9.80;;;;;;;3.39;64.16;96849.66;4958824;28;20698;-80
2022/01/26 07:38:21;;;;;;;12.37;9.90;;;;;;;3.37;64.79;96838.75;4953590;28;20236;-80
2022/01/26 07:40:48;;;;;;;14.23;10.03;;;;;;;3.28;64.44;96837.59;4951017;28;20264;-79
2022/01/26 07:43:15;;;;;;;12.10;9.63;;;;;;;3.36;65.43;96837.94;4950931;28;20218;-81
2022/01/26 07:45:42;;;;;;;14.07;9.83;;;;;;;3.52;64.82;96842.81;4947479;29;20205;-80
2022/01/26 07:48:08;;;;;;;13.83;9.90;;;;;;;3.69;65.03;96845.03;4951653;28;20233;-80
2022/01/26 07:50:36;;;;;;;13.27;10.67;;;;;;;3.74;63.75;96843.00;4951322;28;20675;-80
2022/01/26 07:53:04;;;;;;;14.03;10.73;;;;;;;3.85;63.54;96841.50;4951719;29;20221;-80
2022/01/26 07:55:31;;;;;;;12.20;10.07;;;;;;;3.95;63.79;96838.19;4950985;28;20208;-81
2022/01/26 07:57:58;;;;;;;12.23;10.20;;;;;;;3.96;63.88;96839.81;4952184;28;20232;-80
2022/01/26 08:00:25;;;;;;;12.70;10.43;;;;;;;4.05;63.90;96843.47;4952878;28;20225;-80
2022/01/26 08:02:51;;;;;;;13.40;10.83;;;;;;;4.18;63.61;96846.81;4949839;28;20224;-80
2022/01/26 08:05:21;;;;;;;13.77;10.93;;;;;;;4.28;63.18;96845.25;4946285;28;20211;-80
2022/01/26 08:07:49;;;;;;;14.63;11.40;;;;;;;4.38;62.84;96838.59;4943491;28;20248;-80
2022/01/26 08:10:16;;;;;;;14.97;11.97;;;;;;;4.44;62.73;96834.78;4953599;28;20208;-79
2022/01/26 08:12:42;;;;;;;15.40;11.80;;;;;;;4.56;62.50;96835.66;4951022;28;20932;-80
2022/01/26 08:15:09;;;;;;;16.47;11.73;;;;;;;4.61;62.51;96834.44;4953444;28;20573;-79
2022/01/26 08:17:36;;;;;;;15.07;12.03;;;;;;;4.43;62.83;96831.41;4954309;28;20639;-81
2022/01/26 08:20:05;;;;;;;17.60;12.33;;;;;;;4.52;62.47;96835.06;4954795;28;20595;-79
2022/01/26 08:22:32;;;;;;;15.60;12.37;;;;;;;4.64;61.52;96833.38;4956156;28;20795;-81
2022/01/26 08:25:00;;;;;;;14.80;9.40;;;;;;;5.34;84.09;96833.38;4953062;28;20612;-79
2022/01/26 08:27:32;;;;;;;14.87;12.13;;;;;;;5.42;62.58;96836.97;4941012;28;20590;-80
2022/01/26 08:30:06;;;;;;;15.20;11.83;;;;;;;5.32;61.11;96828.38;4959939;28;20208;-81
2022/01/26 08:32:32;;;;;;;14.23;11.47;;;;;;;5.30;60.89;96829.41;4959352;28;20217;-81
2022/01/26 08:34:59;;;;;;;17.93;12.83;;;;;;;5.41;60.11;96827.69;4959111;28;20201;-79
2022/01/26 08:37:25;;;;;;;15.13;12.87;;;;;;;5.51;60.88;96825.28;4975524;28;20231;-80
2022/01/26 08:39:52;;;;;;;16.00;11.43;;;;;;;5.64;59.98;96827.72;4973917;28;20231;-79
2022/01/26 08:42:21;;;;;;;14.70;12.07;;;;;;;5.72;59.51;96821.13;4959869;28;20263;-80
2022/01/26 08:44:47;;;;;;;16.13;11.90;;;;;;;5.80;58.83;96823.06;4959100;28;20201;-79
2022/01/26 08:47:14;;;;;;;16.83;12.33;;;;;;;5.87;58.19;96832.72;4935043;28;20200;-80
2022/01/26 08:49:40;;;;;;;15.67;12.40;;;;;;;5.94;58.50;96833.13;4959163;28;20695;-80
2022/01/26 08:52:07;;;;;;;18.40;13.27;;;;;;;5.60;61.05;96828.88;4958713;28;20204;-80
2022/01/26 08:54:34;;;;;;;16.10;13.60;;;;;;;5.25;59.88;96824.66;4957568;28;20590;-81
2022/01/26 08:57:01;;;;;;;17.67;13.50;;;;;;;5.43;60.25;96836.06;4947423;28;20208;-79
2022/01/26 08:59:29;;;;;;;17.93;13.73;;;;;;;5.68;59.62;96840.16;4948283;29;20242;-79
2022/01/26 09:01:55;;;;;;;19.97;14.03;;;;;;;5.85;59.49;96839.69;4939460;28;20205;-80
2022/01/26 09:04:22;;;;;;;15.80;13.13;;;;;;;6.01;58.48;96841.91;4938209;29;20216;-79
2022/01/26 09:06:54;;;;;;;18.00;13.20;;;;;;;5.88;58.99;96854.00;4938745;29;20209;-80
2022/01/26 09:09:22;;;;;;;17.27;13.23;;;;;;;6.02;59.21;96846.09;4947342;28;20225;-80
2022/01/26 09:11:50;;;;;;;15.83;12.73;;;;;;;6.24;59.12;96855.50;4950150;29;20201;-80
2022/01/26 09:14:20;;;;;;;15.70;13.00;;;;;;;6.33;58.25;96851.44;4945336;28;20321;-80
2022/01/26 09:16:51;;;;;;;17.10;13.67;;;;;;;6.30;57.78;96841.44;4951668;28;20218;-80
2022/01/26 09:19:26;;;;;;;15.63;12.97;;;;;;;6.31;57.68;96841.31;4934079;28;20249;-80
2022/01/26 09:21:53;;;;;;;16.80;13.30;;;;;;;6.44;57.78;96852.22;4946295;29;20197;-80
2022/01/26 09:24:20;;;;;;;14.00;12.43;;;;;;;6.50;56.43;96846.63;4941630;29;20222;-81
2022/01/26 09:26:47;;;;;;;14.63;12.87;;;;;;;6.60;57.08;96828.78;4950205;29;20201;-81
2022/01/26 09:29:13;;;;;;;17.20;13.17;;;;;;;6.50;56.99;96830.47;4953427;28;20228;-81
2022/01/26 09:31:40;;;;;;;14.50;12.33;;;;;;;6.71;56.92;96830.50;4954350;28;20212;-81
2022/01/26 09:34:07;;;;;;;15.63;12.10;;;;;;;6.87;55.68;96821.50;4953945;28;20365;-81
2022/01/26 09:36:34;;;;;;;16.20;12.47;;;;;;;6.94;56.38;96821.78;4957333;28;20212;-81
2022/01/26 09:39:00;;;;;;;15.33;11.50;;;;;;;7.05;54.92;96821.75;4953060;28;20232;-80
2022/01/26 09:41:27;;;;;;;13.40;11.80;;;;;;;7.14;55.16;96818.44;4954929;29;20204;-80
2022/01/26 09:43:53;;;;;;;12.73;10.80;;;;;;;7.24;54.69;96818.50;4954683;28;20235;-80
2022/01/26 09:46:20;;;;;;;13.27;11.73;;;;;;;7.15;54.83;96824.38;4954179;29;20205;-81
2022/01/26 09:48:46;;;;;;;13.30;11.30;;;;;;;7.30;54.52;96828.25;4954398;28;20857;-81
2022/01/26 09:51:16;;;;;;;13.33;11.20;;;;;;;7.28;54.46;96823.25;4955305;28;20196;-80
2022/01/26 09:53:43;;;;;;;13.67;11.20;;;;;;;7.52;54.06;96822.97;4955732;28;20732;-81
2022/01/26 09:56:14;;;;;;;13.53;11.97;;;;;;;7.72;54.55;96828.19;4955604;28;20204;-80
2022/01/26 09:58:42;;;;;;;13.47;11.00;;;;;;;7.82;54.51;96829.88;4954115;28;20235;-81
2022/01/26 10:01:10;;;;;;;11.80;10.60;;;;;;;7.86;53.30;96831.25;4955980;28;20272;-80
2022/01/26 10:03:37;;;;;;;13.13;11.63;;;;;;;7.89;53.44;96827.59;4955159;29;20718;-81
2022/01/26 10:06:04;;;;;;;13.37;11.97;;;;;;;7.96;53.99;96826.94;4955750;29;20565;-81
2022/01/26 10:19:38;;;;;;;17.57;12.57;;;;;;;7.46;55.76;96818.38;4952412;28;20259;-81
2022/01/26 10:22:08;;;;;;;13.93;12.17;;;;;;;7.59;55.16;96824.09;4954035;28;20216;-81
2022/01/26 10:24:36;;;;;;;15.80;13.13;;;;;;;7.84;55.27;96825.44;4957533;28;20204;-80
2022/01/26 10:27:02;;;;;;;18.57;12.70;;;;;;;7.82;54.17;96819.63;4957172;28;20207;-82
2022/01/26 10:29:33;;;;;;;15.00;13.37;;;;;;;7.88;54.51;96820.88;4956200;28;20660;-80
2022/01/26 10:32:10;;;;;;;14.67;13.00;;;;;;;8.03;54.96;96811.06;4955496;28;20241;-79
2022/01/26 10:34:37;;;;;;;14.93;12.93;;;;;;;8.13;53.96;96811.88;4956776;28;20205;-81
2022/01/26 10:37:04;;;;;;;15.90;13.47;;;;;;;8.03;54.81;96821.31;4968634;28;20200;-82
2022/01/26 10:39:36;;;;;;;15.10;12.83;;;;;;;8.11;54.28;96817.13;4955217;28;20315;-81
2022/01/26 10:42:10;;;;;;;15.23;13.30;;;;;;;8.01;53.83;96818.88;4954415;28;20623;-80
2022/01/26 10:44:42;;;;;;;16.73;13.67;;;;;;;8.00;54.20;96816.44;4956958;29;20220;-80
2022/01/26 10:47:10;;;;;;;17.53;13.93;;;;;;;7.75;54.61;96803.13;4955433;29;20228;-80
2022/01/26 10:50:06;;;;;;;23.20;14.17;;;;;;;7.90;54.63;96799.25;4956102;28;20236;-80
2022/01/26 10:52:35;;;;;;;17.00;14.43;;;;;;;7.88;54.24;96788.34;4954570;29;20244;-80
2022/01/26 10:55:01;;;;;;;17.70;13.93;;;;;;;8.06;54.69;96790.28;4955782;28;20204;-81
2022/01/26 10:57:29;;;;;;;15.13;13.53;;;;;;;8.19;54.24;96783.97;4957233;28;20204;-81
2022/01/26 10:59:56;;;;;;;17.20;13.50;;;;;;;8.17;54.26;96779.91;4954955;28;20263;-81
2022/01/26 11:02:26;;;;;;;14.93;13.33;;;;;;;8.23;54.66;96774.25;4955967;28;20252;-81
2022/01/26 11:04:53;;;;;;;15.33;12.93;;;;;;;8.30;54.52;96765.88;4955145;28;20200;-81
2022/01/26 11:07:20;;;;;;;15.27;12.93;;;;;;;8.37;54.11;96758.50;4957191;28;20673;-81
2022/01/26 11:09:49;;;;;;;14.33;12.17;;;;;;;8.44;53.60;96748.50;4956393;28;20295;-81
2022/01/26 11:12:27;;;;;;;14.87;12.93;;;;;;;8.38;53.93;96741.34;4955693;28;20224;-81
2022/01/26 11:14:59;;;;;;;14.57;13.00;;;;;;;8.31;53.79;96743.59;4956549;28;20328;-81
2022/01/26 11:17:27;;;;;;;17.27;13.23;;;;;;;8.28;53.99;96747.22;4957198;28;20204;-81
2022/01/26 11:19:56;;;;;;;17.37;13.47;;;;;;;8.23;54.23;96743.47;4955910;28;20231;-79
2022/01/26 11:22:27;;;;;;;16.63;13.70;;;;;;;8.31;53.90;96739.25;4955394;28;20296;-80
2022/01/26 11:24:55;;;;;;;16.17;13.33;;;;;;;8.41;53.40;96738.50;4955885;29;20200;-81
2022/01/26 11:27:33;;;;;;;15.23;13.53;;;;;;;8.35;52.66;96742.41;4956669;28;20212;-81
2022/01/26 11:30:05;;;;;;;17.47;13.63;;;;;;;8.47;53.19;96733.63;4954015;28;20212;-81
2022/01/26 11:32:36;;;;;;;14.40;12.90;;;;;;;8.46;53.26;96736.34;4951635;28;20241;-81
2022/01/26 11:35:07;;;;;;;16.10;13.67;;;;;;;8.48;52.63;96734.44;4945360;28;20209;-81
2022/01/26 11:37:40;;;;;;;15.73;13.53;;;;;;;8.24;52.20;96738.19;4948167;29;20208;-80
2022/01/26 11:45:36;;;;;;;16.03;13.07;;;;;;;8.27;52.92;96761.00;4955539;29;20582;-80
2022/01/26 11:48:09;;;;;;;18.50;13.40;;;;;;;8.31;52.87;96746.16;4957196;28;20212;-80
2022/01/26 11:50:37;;;;;;;14.33;12.77;;;;;;;8.47;52.01;96746.47;4949502;28;20209;-81
2022/01/26 11:53:06;;;;;;;17.63;13.27;;;;;;;8.51;52.37;96745.25;4957426;29;20225;-80
2022/01/26 11:55:40;;;;;;;15.70;13.03;;;;;;;8.64;52.55;96755.25;4957198;28;20197;-81
2022/01/26 11:58:12;;;;;;;15.13;12.90;;;;;;;8.68;52.29;96761.72;4951460;28;20243;-81
2022/01/26 12:00:55;;;;;;;21.27;18.77;;;;;;;8.65;52.56;96751.75;4938290;29;20290;-80
2022/01/26 12:03:23;;;;;;;45.30;35.57;;;;;;;8.76;52.97;96745.66;4949810;28;20232;-81
2022/01/26 12:05:52;;;;;;;20.93;15.63;;;;;;;8.83;52.36;96744.16;4954864;28;20219;-81
2022/01/26 12:08:31;;;;;;;15.70;13.50;;;;;;;8.92;53.38;96751.03;4955020;28;20201;-82
2022/01/26 12:10:58;;;;;;;14.77;13.03;;;;;;;9.07;52.92;96743.72;4955048;28;20202;-81
2022/01/26 12:13:26;;;;;;;23.30;13.90;;;;;;;9.16;53.23;96748.84;4947841;28;20349;-81
2022/01/26 12:15:57;;;;;;;18.10;13.40;;;;;;;9.29;52.38;96751.91;4954518;28;20206;-81
2022/01/26 12:18:31;;;;;;;17.03;14.47;;;;;;;9.22;52.23;96753.44;4953560;28;20233;-81
2022/01/26 12:32:17;;;;;;;26.90;21.30;;;;;;;9.34;51.68;96764.34;4953848;28;20202;-80
2022/01/26 12:34:50;;;;;;;18.30;16.40;;;;;;;9.29;51.97;96779.38;4943694;29;20267;-80
2022/01/26 12:37:33;;;;;;;18.97;15.67;;;;;;;9.36;51.70;96770.16;4947130;28;20237;-80
2022/01/26 12:43:05;;;;;;;18.83;15.83;;;;;;;9.38;51.29;96747.69;4954639;28;20227;-79
2022/01/26 12:45:31;;;;;;;19.77;16.33;;;;;;;9.40;51.06;96742.41;4954136;28;20205;-79
2022/01/26 12:47:59;;;;;;;19.13;16.33;;;;;;;9.40;51.18;96742.41;4953686;29;20212;-80
2022/01/26 12:50:26;;;;;;;19.00;16.03;;;;;;;9.45;50.62;96735.06;4955426;29;20885;-80
2022/01/26 12:52:56;;;;;;;21.10;15.80;;;;;;;9.52;50.95;96736.16;4954973;28;20221;-80
2022/01/26 12:55:24;;;;;;;21.53;16.20;;;;;;;9.45;51.09;96717.91;4954261;28;20236;-80
2022/01/26 12:57:51;;;;;;;18.33;15.20;;;;;;;9.57;50.71;96724.50;4955125;29;20216;-79
2022/01/26 13:00:18;;;;;;;18.17;15.23;;;;;;;9.58;50.33;96717.59;4952358;28;20229;-80
2022/01/26 13:02:45;;;;;;;19.20;16.60;;;;;;;9.67;50.47;96716.72;4953889;29;20229;-80
2022/01/26 13:05:15;;;;;;;19.73;16.27;;;;;;;9.69;50.38;96725.09;4955369;29;20212;-80
2022/01/26 13:07:42;;;;;;;19.47;16.43;;;;;;;9.72;50.12;96717.09;4953762;28;20223;-80